Alloway, New Jersey
Current Conditions -  °F | °C
As of 8:51 AM on Thursday 18 Dec 2014 (Local Time) from KILG Reporting Station
Overcast Overcast  
Wind Chill: 28°   Ceiling: 4100
Heat Index: 37°   Visibility: 10mi
Dew Point: 20°   Wind: 14mph
Humidity: 50%   Direction: 290°WNW
Pressure: 30.11"   Gusts: NA
Location:  39.56°N, 75.36°W
Report Text: KILG 181351Z 29012KT 10SM OVC041 03/M07 A3011 RMK AO2 SLP198 T00281067
Loading
Personal Weather Stations






























Interactive Weather Map New forecast layout! Learn more

10-Day Weather Forecast

Advertisements
Track Severe Weather on mobile